Jordan Information

FAA: JDN - ICAO: KJDN

Jordan (Airport) Location

State Montana
County Garfield
City Jordan
Jordan (Airport) is 2 miles northwest of Jordan, MT.
Latitude 47-19-43.5000N
Longitude 106-57-09.6800W
Elevation 2,666ft

Jordan METARs

METAR KJDN 190048Z AUTO 33019G25KT M12/M18 A3026 RMK AO1 SLP294 T11171178
Altimeter 30.26"
Temperature -11.7°C (10.9°F)
Wind 330° at 19KT with gusts to 25KT
Clouds at 0ft
Visibility mi
Time observed: 2022-01-19T00:48:00Z

Jordan (Airport) Details

Status Operational
Activation April 1940
Ownership Public
Usage Public
Chart BILLINGS
ATC on-site No
Beacon schedule sunset-sunrise
Beacon color clear green

Jordan (Airport) Contacts

Owner GARFIELD COUNTY
Owner address PO BOX 7, JORDAN, MT 59337
Owner phone (406) 557-2760
Manager CARY DUNCAN
Manager address 6062 WILLOW CR. RD., HELENA, MT 59601
Manager phone 406-443-3640

Jordan Radio Frequencies

Jordan (Airport) Radio Frequencies

UNICOM N/A
Common traffic advisory frequency (CTAF) 122.9